Time;durP1;ratioP1;P1;durP2;ratioP2;P2;SDS_P1;SDS_P2;PMS_P1;PMS_P2;Temp;Humidity;BMP_temperature;BMP_pressure;BME280_temperature;BME280_humidity;BME280_pressure;Samples;Min_cycle;Max_cycle;Signal;HPM_P1;HPM_P2
2021/10/16 00:01:12;;;;;;;4.18;2.83;;;8.10;99.90;;;;;;5056592;28;20024;-84
2021/10/16 00:03:37;;;;;;;6.88;3.30;;;8.50;99.90;;;;;;5056754;28;20486;-83
2021/10/16 00:06:03;;;;;;;5.18;2.90;;;8.70;99.90;;;;;;5056528;28;20102;-83
2021/10/16 00:08:29;;;;;;;6.32;3.15;;;8.80;99.90;;;;;;5056486;28;20150;-83
2021/10/16 00:10:55;;;;;;;7.30;3.17;;;8.60;99.90;;;;;;5056369;28;20054;-83
2021/10/16 00:13:20;;;;;;;5.63;3.25;;;8.40;99.90;;;;;;5056336;28;20117;-83
2021/10/16 00:15:46;;;;;;;6.22;3.13;;;8.60;99.90;;;;;;5074164;28;20357;-84
2021/10/16 00:18:13;;;;;;;4.35;2.85;;;8.90;99.90;;;;;;5074088;28;20085;-83
2021/10/16 00:20:38;;;;;;;6.85;3.35;;;9.00;99.90;;;;;;5056139;28;20037;-83
2021/10/16 00:23:04;;;;;;;5.70;3.40;;;8.90;99.90;;;;;;5073992;28;20028;-83
2021/10/16 00:25:30;;;;;;;7.65;3.30;;;8.70;99.90;;;;;;5056390;28;20035;-83
2021/10/16 00:27:55;;;;;;;8.27;3.53;;;8.80;99.90;;;;;;5056091;28;20479;-83
2021/10/16 00:30:21;;;;;;;6.57;3.58;;;8.60;99.90;;;;;;5055970;28;20021;-83
2021/10/16 00:32:47;;;;;;;5.32;3.30;;;8.30;99.90;;;;;;5055964;28;20021;-83
2021/10/16 00:35:13;;;;;;;7.95;4.15;;;8.10;99.90;;;;;;5055914;28;20466;-83
2021/10/16 00:37:38;;;;;;;5.70;3.10;;;8.00;99.90;;;;;;5055618;28;20078;-83
2021/10/16 00:40:06;;;;;;;6.38;3.42;;;8.10;99.90;;;;;;5055883;28;20046;-84
2021/10/16 00:42:41;;;;;;;6.60;3.67;;;8.30;99.90;;;;;;5055721;28;20062;-83
2021/10/16 00:45:07;;;;;;;5.28;3.10;;;8.50;99.90;;;;;;5055763;28;20476;-83
2021/10/16 00:47:33;;;;;;;4.03;2.85;;;8.70;99.90;;;;;;5055683;28;20031;-83
2021/10/16 00:49:59;;;;;;;6.57;3.25;;;8.90;99.90;;;;;;5055795;28;20020;-84
2021/10/16 00:52:24;;;;;;;7.78;3.58;;;8.70;99.90;;;;;;5055620;28;20024;-84
2021/10/16 00:54:50;;;;;;;4.78;3.05;;;8.60;99.90;;;;;;5055526;28;20110;-84
2021/10/16 00:57:16;;;;;;;6.97;2.90;;;8.40;99.90;;;;;;5055394;28;20384;-83
2021/10/16 00:59:42;;;;;;;5.45;3.40;;;8.60;99.90;;;;;;5073740;28;20027;-83
2021/10/16 01:02:08;;;;;;;5.00;3.00;;;8.60;99.90;;;;;;5055433;28;20369;-83
2021/10/16 01:04:34;;;;;;;4.72;2.80;;;8.50;99.90;;;;;;5055514;28;20108;-83
2021/10/16 01:07:00;;;;;;;7.10;2.67;;;8.40;99.90;;;;;;5055281;28;20024;-83
2021/10/16 01:09:25;;;;;;;6.25;2.88;;;8.30;99.90;;;;;;5055369;28;20024;-83
2021/10/16 01:11:56;;;;;;;7.90;3.05;;;8.20;99.90;;;;;;5055253;28;20523;-83
2021/10/16 01:14:22;;;;;;;5.07;3.25;;;8.20;99.90;;;;;;5055340;28;20028;-83
2021/10/16 01:16:51;;;;;;;5.63;2.70;;;8.20;99.90;;;;;;5055244;28;20426;-83
2021/10/16 01:19:20;;;;;;;7.10;3.75;;;8.40;99.90;;;;;;5055259;28;20024;-83
2021/10/16 01:21:48;;;;;;;5.57;3.55;;;8.30;99.90;;;;;;5055092;28;20103;-83
2021/10/16 01:24:15;;;;;;;10.88;3.35;;;8.30;99.90;;;;;;5055106;28;20025;-83
2021/10/16 01:26:44;;;;;;;5.45;3.22;;;8.40;99.90;;;;;;5055085;28;20017;-84
2021/10/16 01:29:14;;;;;;;6.13;3.63;;;8.30;99.90;;;;;;5055143;28;20024;-83
2021/10/16 01:31:40;;;;;;;6.07;3.83;;;8.20;99.90;;;;;;5055117;28;20051;-83
2021/10/16 01:34:06;;;;;;;6.90;3.80;;;8.10;99.90;;;;;;5055034;28;20029;-83
2021/10/16 01:36:43;;;;;;;3.78;3.00;;;8.20;99.90;;;;;;5073008;28;20491;-83
2021/10/16 01:39:10;;;;;;;9.77;4.47;;;8.20;99.90;;;;;;5054954;28;20437;-83
2021/10/16 01:41:36;;;;;;;6.57;4.00;;;8.10;99.90;;;;;;5073179;28;20103;-83
2021/10/16 01:44:04;;;;;;;5.93;3.63;;;8.10;99.90;;;;;;5054850;28;20115;-83
2021/10/16 01:46:30;;;;;;;6.57;3.63;;;8.10;99.90;;;;;;5055240;28;20384;-83
2021/10/16 01:48:56;;;;;;;5.47;3.20;;;8.10;99.90;;;;;;5056393;28;20017;-84
2021/10/16 01:51:21;;;;;;;7.05;3.22;;;8.30;99.90;;;;;;5059081;28;20510;-84
2021/10/16 01:53:47;;;;;;;6.47;3.50;;;8.70;99.90;;;;;;5076918;28;20032;-84
2021/10/16 01:56:13;;;;;;;6.45;4.13;;;8.80;99.90;;;;;;5058688;28;20082;-84
2021/10/16 01:58:39;;;;;;;7.55;3.80;;;8.60;99.90;;;;;;5077101;28;20032;-83
2021/10/16 02:01:04;;;;;;;7.38;3.92;;;8.50;99.90;;;;;;5058708;28;20039;-84
2021/10/16 02:03:30;;;;;;;10.40;3.63;;;8.60;99.90;;;;;;5076663;28;20043;-83
2021/10/16 02:05:56;;;;;;;5.63;3.20;;;8.70;99.90;;;;;;5076683;28;20017;-83
2021/10/16 02:08:21;;;;;;;7.57;3.65;;;8.70;99.90;;;;;;5076901;28;20438;-84
2021/10/16 02:10:47;;;;;;;7.30;3.50;;;8.70;99.90;;;;;;5058714;28;20024;-84
2021/10/16 02:13:13;;;;;;;5.15;3.40;;;8.60;99.90;;;;;;5058614;28;20035;-84
2021/10/16 02:15:39;;;;;;;6.30;3.47;;;8.60;99.90;;;;;;5058609;28;20024;-84
2021/10/16 02:18:05;;;;;;;6.13;3.55;;;8.60;99.90;;;;;;5076469;28;20020;-83
2021/10/16 02:20:30;;;;;;;6.32;3.47;;;8.70;99.90;;;;;;5058513;28;20383;-84
2021/10/16 02:22:56;;;;;;;4.97;3.50;;;8.50;99.90;;;;;;5058336;28;20078;-84
2021/10/16 02:25:22;;;;;;;5.72;3.95;;;8.60;99.90;;;;;;5058309;28;20028;-84
2021/10/16 02:27:48;;;;;;;5.97;3.50;;;8.90;99.90;;;;;;5058342;28;20035;-84
2021/10/16 02:30:13;;;;;;;10.65;4.15;;;9.10;99.90;;;;;;5058561;28;20490;-84
2021/10/16 02:32:39;;;;;;;7.47;3.10;;;9.20;99.90;;;;;;5058290;28;20028;-83
2021/10/16 02:35:06;;;;;;;6.93;4.50;;;9.20;99.90;;;;;;5058210;28;20054;-83
2021/10/16 02:37:31;;;;;;;6.10;3.83;;;9.40;99.90;;;;;;5058132;28;20025;-83
2021/10/16 02:39:57;;;;;;;7.53;3.90;;;9.20;99.90;;;;;;5058127;28;20027;-83
2021/10/16 02:42:23;;;;;;;7.60;4.72;;;9.20;99.90;;;;;;5058840;28;20059;-83
2021/10/16 02:44:49;;;;;;;7.00;3.70;;;8.90;99.90;;;;;;5076495;28;20031;-83
2021/10/16 02:47:15;;;;;;;8.18;5.13;;;9.20;99.90;;;;;;5057958;28;20016;-84
2021/10/16 02:49:41;;;;;;;11.57;5.10;;;9.10;99.90;;;;;;5057895;28;20047;-83
2021/10/16 02:52:07;;;;;;;7.47;3.97;;;8.90;99.90;;;;;;5057928;28;20020;-83
2021/10/16 02:54:32;;;;;;;8.13;4.65;;;9.00;99.90;;;;;;5057861;28;20434;-83
2021/10/16 02:56:58;;;;;;;8.13;4.20;;;9.00;99.90;;;;;;5057778;28;20052;-83
2021/10/16 02:59:24;;;;;;;6.72;4.32;;;9.00;99.90;;;;;;5057657;28;20024;-83
2021/10/16 03:01:49;;;;;;;7.03;4.38;;;9.30;99.90;;;;;;5057635;28;20025;-83
2021/10/16 03:04:15;;;;;;;7.70;4.85;;;9.40;99.90;;;;;;5057716;28;20048;-83
2021/10/16 03:06:41;;;;;;;6.22;4.35;;;9.40;99.90;;;;;;5057665;28;20040;-83
2021/10/16 03:09:07;;;;;;;3.75;3.08;;;9.40;99.90;;;;;;5057509;28;20024;-83
2021/10/16 03:11:32;;;;;;;9.23;6.03;;;9.70;99.90;;;;;;5057623;28;20365;-83
2021/10/16 03:14:01;;;;;;;12.82;5.93;;;9.80;99.90;;;;;;5057548;28;20105;-83
2021/10/16 03:16:28;;;;;;;8.60;6.00;;;9.70;99.90;;;;;;5057985;28;20081;-83
2021/10/16 03:18:54;;;;;;;11.00;5.28;;;9.70;99.90;;;;;;5075367;28;20035;-83
2021/10/16 03:21:22;;;;;;;15.02;6.28;;;9.50;99.90;;;;;;5057278;28;20028;-83
2021/10/16 03:23:48;;;;;;;13.25;6.03;;;9.60;99.90;;;;;;5057280;28;20024;-83
2021/10/16 03:26:14;;;;;;;9.43;5.22;;;9.50;99.90;;;;;;5075217;28;20021;-83
2021/10/16 03:28:40;;;;;;;11.50;6.47;;;9.40;99.90;;;;;;5057228;28;20031;-83
2021/10/16 03:31:06;;;;;;;6.38;4.63;;;9.20;99.90;;;;;;5057078;28;20031;-84
2021/10/16 03:33:31;;;;;;;7.45;4.63;;;9.20;99.90;;;;;;5057418;28;20115;-84
2021/10/16 03:35:57;;;;;;;6.68;4.55;;;9.20;99.90;;;;;;5057100;28;20029;-84
2021/10/16 03:38:23;;;;;;;10.77;6.55;;;9.30;99.90;;;;;;5057004;28;20484;-84
2021/10/16 03:40:49;;;;;;;11.90;6.07;;;9.30;99.90;;;;;;5056992;28;20020;-84
2021/10/16 03:43:15;;;;;;;9.50;5.65;;;9.50;99.90;;;;;;5056895;28;20028;-83
2021/10/16 03:45:41;;;;;;;11.40;5.47;;;9.50;99.90;;;;;;5056944;28;20021;-84
2021/10/16 03:48:06;;;;;;;8.82;5.10;;;9.50;99.90;;;;;;5056899;28;20384;-84
2021/10/16 03:50:34;;;;;;;15.40;7.10;;;9.60;99.90;;;;;;5056912;28;20127;-84
2021/10/16 03:53:00;;;;;;;18.23;7.32;;;9.60;99.90;;;;;;5056749;28;20475;-84
2021/10/16 03:55:26;;;;;;;12.52;6.03;;;9.50;99.90;;;;;;5056780;28;20484;-84
2021/10/16 03:57:52;;;;;;;11.48;6.95;;;9.50;99.90;;;;;;5056665;28;20098;-84
2021/10/16 04:00:21;;;;;;;9.93;5.22;;;9.50;99.90;;;;;;5056784;28;20027;-84
2021/10/16 04:02:51;;;;;;;10.52;4.97;;;9.60;99.90;;;;;;5074510;28;20424;-84
2021/10/16 04:05:16;;;;;;;22.88;10.57;;;9.70;99.90;;;;;;5056561;28;20028;-84
2021/10/16 04:07:43;;;;;;;19.63;10.52;;;9.80;99.90;;;;;;5056517;28;20021;-84
2021/10/16 04:10:09;;;;;;;18.25;10.27;;;9.60;99.90;;;;;;5056430;28;20392;-84
2021/10/16 04:12:35;;;;;;;25.42;11.77;;;9.50;99.90;;;;;;5055796;28;20039;-84
2021/10/16 04:15:02;;;;;;;27.23;11.35;;;9.40;99.90;;;;;;5056326;28;20031;-84
2021/10/16 04:17:27;;;;;;;27.83;14.55;;;9.30;99.90;;;;;;5056215;28;20075;-84
2021/10/16 04:19:53;;;;;;;17.35;9.20;;;9.30;99.90;;;;;;5056274;28;20036;-84
2021/10/16 04:22:19;;;;;;;17.60;8.68;;;9.20;99.90;;;;;;5056108;28;20119;-84
2021/10/16 04:24:44;;;;;;;15.30;8.38;;;9.50;99.90;;;;;;5056253;28;20028;-84
2021/10/16 04:27:11;;;;;;;19.90;10.02;;;9.40;99.90;;;;;;5056118;28;20028;-84
2021/10/16 04:29:37;;;;;;;16.48;8.40;;;9.60;99.90;;;;;;5073873;28;20388;-84
2021/10/16 04:32:04;;;;;;;19.30;10.70;;;9.60;99.90;;;;;;5056058;28;20384;-84
2021/10/16 04:34:29;;;;;;;25.08;10.32;;;9.70;99.90;;;;;;5073938;28;20527;-84
2021/10/16 04:36:55;;;;;;;30.95;13.80;;;9.50;99.90;;;;;;5056824;28;20107;-84
2021/10/16 04:39:21;;;;;;;21.75;11.18;;;9.40;99.90;;;;;;5056035;28;20035;-84
2021/10/16 04:41:47;;;;;;;29.42;11.18;;;9.40;99.90;;;;;;5055968;28;20369;-84
2021/10/16 04:44:13;;;;;;;27.55;11.73;;;9.60;99.90;;;;;;5073655;28;20454;-84
2021/10/16 04:46:39;;;;;;;29.52;11.60;;;9.50;99.90;;;;;;5055761;28;20388;-84
2021/10/16 04:49:06;;;;;;;20.50;10.57;;;9.40;99.90;;;;;;5055745;28;20021;-84
2021/10/16 04:51:32;;;;;;;28.70;10.50;;;9.30;99.90;;;;;;5073483;28;20477;-84
2021/10/16 04:53:58;;;;;;;21.25;9.70;;;9.20;99.90;;;;;;5055578;28;20032;-84
2021/10/16 04:56:24;;;;;;;23.23;11.13;;;9.30;99.90;;;;;;5055299;28;20838;-84
2021/10/16 04:58:50;;;;;;;19.55;10.32;;;9.40;99.90;;;;;;5055551;28;20059;-84
2021/10/16 05:01:15;;;;;;;19.58;10.27;;;9.40;99.90;;;;;;5056330;28;20467;-85
2021/10/16 05:03:41;;;;;;;30.65;10.23;;;9.50;99.90;;;;;;5055392;28;20554;-84
2021/10/16 05:06:07;;;;;;;28.67;13.30;;;9.50;99.90;;;;;;5055405;28;20074;-84
2021/10/16 05:08:35;;;;;;;29.05;13.55;;;9.50;99.90;;;;;;5073612;28;20095;-84
2021/10/16 05:11:01;;;;;;;26.15;12.48;;;9.40;99.90;;;;;;5055267;28;20438;-84
2021/10/16 05:13:27;;;;;;;21.98;9.68;;;9.40;99.90;;;;;;5055390;28;20029;-84
2021/10/16 05:15:53;;;;;;;31.83;13.95;;;9.70;99.90;;;;;;5055290;28;20047;-84
2021/10/16 05:18:21;;;;;;;35.20;15.15;;;9.70;99.90;;;;;;5055258;28;20048;-84
2021/10/16 05:20:48;;;;;;;27.33;10.77;;;9.60;99.90;;;;;;5055244;28;20077;-84
2021/10/16 05:23:14;;;;;;;41.60;16.30;;;9.70;99.90;;;;;;5054333;28;20024;-84
2021/10/16 05:25:39;;;;;;;50.13;19.13;;;9.70;99.90;;;;;;5055228;28;20028;-84
2021/10/16 05:28:05;;;;;;;49.47;18.92;;;9.70;99.90;;;;;;5055157;28;20028;-84
2021/10/16 05:30:31;;;;;;;41.03;16.38;;;9.50;99.90;;;;;;5055110;28;20047;-84
2021/10/16 05:32:57;;;;;;;31.00;13.23;;;9.50;99.90;;;;;;5055152;28;20048;-84
2021/10/16 05:35:23;;;;;;;30.13;12.95;;;9.40;99.90;;;;;;5054990;28;20078;-84
2021/10/16 05:37:48;;;;;;;36.05;14.43;;;9.40;99.90;;;;;;5055045;28;20025;-84
2021/10/16 05:40:14;;;;;;;40.42;16.83;;;9.60;99.90;;;;;;5054995;28;20074;-84
2021/10/16 05:42:40;;;;;;;45.42;17.65;;;9.60;99.90;;;;;;5072863;28;20503;-84
2021/10/16 05:45:06;;;;;;;35.40;13.80;;;9.70;99.90;;;;;;5055014;28;20017;-83
2021/10/16 05:47:32;;;;;;;34.83;14.18;;;9.60;99.90;;;;;;5073204;28;20364;-84
2021/10/16 05:49:58;;;;;;;31.10;13.90;;;9.60;99.90;;;;;;5054937;28;20124;-84
2021/10/16 05:52:23;;;;;;;30.95;15.25;;;9.60;99.90;;;;;;5055170;28;20035;-84
2021/10/16 05:54:49;;;;;;;27.15;12.27;;;9.70;99.90;;;;;;5072869;28;20119;-83
2021/10/16 05:57:15;;;;;;;31.67;15.32;;;9.70;99.90;;;;;;5054563;28;20068;-84
2021/10/16 05:59:40;;;;;;;30.73;14.32;;;9.60;99.90;;;;;;5054781;28;20029;-84
2021/10/16 06:02:09;;;;;;;33.33;14.20;;;9.60;99.90;;;;;;5054790;28;20074;-84
2021/10/16 06:04:35;;;;;;;23.17;11.35;;;9.50;99.90;;;;;;5072816;28;20480;-84
2021/10/16 06:07:00;;;;;;;29.63;13.85;;;9.60;99.90;;;;;;5054742;28;20028;-84
2021/10/16 06:09:26;;;;;;;25.27;12.45;;;9.60;99.90;;;;;;5054705;28;20102;-83
2021/10/16 06:11:52;;;;;;;29.60;13.10;;;9.60;99.90;;;;;;5054787;28;20021;-84
2021/10/16 06:14:17;;;;;;;28.48;12.55;;;9.60;99.90;;;;;;5054844;28;20029;-84
2021/10/16 06:16:43;;;;;;;30.00;14.07;;;9.70;99.90;;;;;;5054702;28;20037;-84
2021/10/16 06:19:09;;;;;;;36.67;15.25;;;9.60;99.90;;;;;;5054819;28;20029;-84
2021/10/16 06:21:35;;;;;;;27.27;13.90;;;9.60;99.90;;;;;;5054552;28;20036;-84
2021/10/16 06:24:00;;;;;;;41.35;19.92;;;9.60;99.90;;;;;;5054462;28;20060;-84
2021/10/16 06:26:26;;;;;;;33.95;16.50;;;9.50;99.90;;;;;;5054582;28;20028;-84
2021/10/16 06:28:52;;;;;;;41.83;18.55;;;9.50;99.90;;;;;;5054663;28;20025;-84
2021/10/16 06:31:18;;;;;;;40.83;21.50;;;9.50;99.90;;;;;;5054571;28;20089;-84
2021/10/16 06:33:43;;;;;;;43.10;19.70;;;9.50;99.90;;;;;;5054511;28;20439;-84
2021/10/16 06:36:09;;;;;;;30.52;16.83;;;9.50;99.90;;;;;;5075517;28;20035;-84
2021/10/16 06:38:34;;;;;;;35.58;18.75;;;9.60;99.90;;;;;;5058109;28;20029;-84
2021/10/16 06:41:02;;;;;;;30.80;15.82;;;9.50;99.90;;;;;;5058092;28;20035;-84
2021/10/16 06:43:28;;;;;;;31.85;16.17;;;9.60;99.90;;;;;;5057911;28;20031;-84
2021/10/16 06:45:54;;;;;;;31.27;16.42;;;9.50;99.90;;;;;;5057973;28;20029;-84
2021/10/16 06:48:20;;;;;;;46.22;21.88;;;9.60;99.90;;;;;;5058270;28;20032;-84
2021/10/16 06:50:46;;;;;;;39.90;19.55;;;9.60;99.90;;;;;;5058374;28;20123;-84
2021/10/16 06:53:13;;;;;;;33.13;16.52;;;9.60;99.90;;;;;;5076113;28;20103;-84
2021/10/16 06:55:39;;;;;;;34.72;17.33;;;9.60;99.90;;;;;;5057821;28;20115;-83
2021/10/16 06:58:04;;;;;;;41.25;18.50;;;9.70;99.90;;;;;;5057614;28;20066;-84
2021/10/16 07:00:30;;;;;;;40.08;17.50;;;9.70;99.90;;;;;;5058251;28;20032;-84
2021/10/16 07:02:56;;;;;;;54.38;21.35;;;9.70;99.90;;;;;;5057600;28;20028;-84
2021/10/16 07:05:21;;;;;;;46.22;18.25;;;9.70;99.90;;;;;;5057750;28;20086;-84
2021/10/16 07:07:47;;;;;;;57.85;23.20;;;9.80;99.90;;;;;;5057696;28;20028;-84
2021/10/16 07:10:13;;;;;;;50.03;18.58;;;9.70;99.90;;;;;;5057766;28;20016;-84
2021/10/16 07:12:39;;;;;;;42.25;17.77;;;9.60;99.90;;;;;;5057621;28;20028;-84
2021/10/16 07:15:06;;;;;;;51.30;20.83;;;9.60;99.90;;;;;;5075520;28;20025;-84
2021/10/16 07:17:32;;;;;;;46.65;20.05;;;9.60;99.90;;;;;;5057514;28;20034;-84
2021/10/16 07:19:58;;;;;;;50.45;21.25;;;9.60;99.90;;;;;;5057752;28;20020;-84
2021/10/16 07:22:24;;;;;;;59.72;25.75;;;9.60;99.90;;;;;;5057298;28;20029;-84
2021/10/16 07:24:50;;;;;;;61.70;24.05;;;9.60;99.90;;;;;;5057370;28;20025;-84
2021/10/16 07:27:16;;;;;;;60.60;25.85;;;9.50;99.90;;;;;;5057355;28;20482;-84
2021/10/16 07:29:42;;;;;;;61.72;25.02;;;9.50;99.90;;;;;;5057314;28;20032;-84
2021/10/16 07:32:08;;;;;;;49.42;21.27;;;9.50;99.90;;;;;;5057109;28;20028;-83
2021/10/16 07:34:34;;;;;;;41.03;19.83;;;9.60;99.90;;;;;;5057997;28;20108;-84
2021/10/16 07:36:59;;;;;;;51.97;22.00;;;9.70;99.90;;;;;;5057068;28;20028;-84
2021/10/16 07:39:25;;;;;;;57.72;22.95;;;9.80;99.90;;;;;;5057916;28;20021;-84
2021/10/16 07:41:51;;;;;;;43.22;17.33;;;9.80;99.90;;;;;;5074946;28;20533;-84
2021/10/16 07:44:17;;;;;;;129.48;46.33;;;9.90;99.90;;;;;;5056877;28;20021;-84
2021/10/16 07:46:44;;;;;;;77.40;32.00;;;9.80;99.90;;;;;;5055973;28;20514;-84
2021/10/16 07:49:11;;;;;;;62.15;26.45;;;9.80;99.90;;;;;;5056777;28;20024;-84
2021/10/16 07:51:37;;;;;;;60.35;25.90;;;9.90;99.90;;;;;;5056745;28;20021;-83
2021/10/16 07:54:03;;;;;;;42.47;17.13;;;10.00;99.90;;;;;;5056691;28;20029;-84
2021/10/16 07:56:29;;;;;;;44.85;20.58;;;10.10;99.90;;;;;;5056423;28;20051;-84
2021/10/16 07:58:55;;;;;;;45.45;20.73;;;10.10;99.90;;;;;;5056761;28;20021;-84
2021/10/16 08:01:21;;;;;;;48.05;22.75;;;10.10;99.90;;;;;;5056535;28;20396;-84
2021/10/16 08:03:46;;;;;;;44.42;20.73;;;10.00;99.90;;;;;;5056376;28;20513;-84
2021/10/16 08:06:12;;;;;;;59.67;23.20;;;10.10;99.90;;;;;;5074532;28;20031;-84
2021/10/16 08:08:38;;;;;;;58.97;25.38;;;10.10;99.90;;;;;;5056431;28;20115;-84
2021/10/16 08:11:03;;;;;;;51.70;25.52;;;10.00;99.90;;;;;;5056480;28;20104;-84
2021/10/16 08:13:30;;;;;;;56.05;24.95;;;10.00;99.90;;;;;;5056421;28;20575;-84
2021/10/16 08:15:57;;;;;;;50.92;22.42;;;10.10;99.90;;;;;;5056302;28;20035;-84
2021/10/16 08:18:23;;;;;;;61.08;24.83;;;10.10;99.90;;;;;;5056834;28;20024;-84
2021/10/16 08:20:49;;;;;;;72.35;26.40;;;10.10;99.90;;;;;;5056268;28;20186;-84
2021/10/16 08:23:15;;;;;;;50.50;21.48;;;10.20;99.90;;;;;;5056337;28;20121;-84
2021/10/16 08:25:40;;;;;;;54.22;23.80;;;10.40;99.90;;;;;;5056613;28;20024;-84
2021/10/16 08:28:08;;;;;;;68.00;29.88;;;10.60;99.90;;;;;;5056895;28;20051;-84
2021/10/16 08:30:34;;;;;;;52.95;21.88;;;10.60;99.90;;;;;;5056283;28;20025;-84
2021/10/16 08:33:00;;;;;;;43.10;21.17;;;10.40;99.90;;;;;;5057175;28;20391;-84
2021/10/16 08:35:25;;;;;;;42.83;21.35;;;10.60;99.90;;;;;;5056832;28;20031;-84
2021/10/16 08:37:51;;;;;;;50.05;23.17;;;10.40;99.90;;;;;;5056052;28;20024;-84
2021/10/16 08:40:17;;;;;;;39.20;18.20;;;10.40;99.90;;;;;;5056255;28;20434;-84
2021/10/16 08:42:43;;;;;;;40.08;20.13;;;10.40;99.90;;;;;;5055771;28;20027;-84
2021/10/16 08:45:08;;;;;;;37.42;18.48;;;10.50;99.90;;;;;;5055806;28;20020;-84
2021/10/16 08:47:38;;;;;;;34.88;18.23;;;10.40;99.90;;;;;;5055644;28;20054;-84
2021/10/16 08:50:08;;;;;;;33.08;16.63;;;10.40;99.90;;;;;;5055683;28;20021;-84
2021/10/16 08:52:35;;;;;;;29.95;15.35;;;10.40;99.90;;;;;;5055559;28;20051;-84
2021/10/16 08:55:02;;;;;;;32.70;16.88;;;10.60;99.90;;;;;;5055558;28;20454;-84
2021/10/16 08:57:31;;;;;;;32.00;18.45;;;10.50;99.90;;;;;;5055151;28;20040;-83
2021/10/16 08:59:57;;;;;;;32.17;17.33;;;10.50;99.90;;;;;;5073487;28;20052;-83
2021/10/16 09:02:34;;;;;;;24.02;14.35;;;10.40;99.90;;;;;;5055363;28;20063;-83
2021/10/16 09:05:13;;;;;;;30.85;16.30;;;10.60;99.90;;;;;;5055489;28;20020;-81
2021/10/16 09:07:39;;;;;;;34.88;17.55;;;10.70;99.90;;;;;;5073508;28;20090;-83
2021/10/16 09:10:23;;;;;;;42.85;20.80;;;10.50;99.90;;;;;;5055886;28;20021;-81
2021/10/16 09:12:54;;;;;;;47.92;22.27;;;10.50;99.90;;;;;;5055761;28;20116;-82
2021/10/16 09:15:24;;;;;;;47.38;21.40;;;10.50;99.90;;;;;;5055415;28;20025;-87
2021/10/16 09:18:06;;;;;;;49.03;22.25;;;10.40;99.90;;;;;;5073306;28;20365;-83
2021/10/16 09:20:37;;;;;;;43.78;20.73;;;10.40;99.90;;;;;;5055268;28;20077;-82
2021/10/16 09:23:09;;;;;;;44.45;21.80;;;10.40;99.90;;;;;;5055142;28;20060;-83
2021/10/16 09:25:35;;;;;;;39.67;19.80;;;10.30;99.90;;;;;;5055146;28;20021;-84
2021/10/16 09:28:18;;;;;;;37.05;17.55;;;10.40;99.90;;;;;;5055127;28;20438;-83
2021/10/16 09:30:48;;;;;;;42.45;18.15;;;10.40;99.90;;;;;;5055169;28;20132;-84
2021/10/16 09:33:14;;;;;;;40.58;18.98;;;10.50;99.90;;;;;;5055105;28;20503;-82
2021/10/16 09:35:40;;;;;;;38.60;19.27;;;10.60;99.90;;;;;;5055197;28;20029;-79
2021/10/16 09:38:07;;;;;;;46.08;20.27;;;10.70;99.90;;;;;;5055055;28;20024;-79
2021/10/16 09:40:37;;;;;;;48.65;20.50;;;10.60;99.90;;;;;;5073145;28;20029;-79
2021/10/16 09:43:22;;;;;;;42.90;20.80;;;10.40;99.90;;;;;;5073076;28;20483;-79
2021/10/16 09:46:11;;;;;;;54.88;20.88;;;10.40;99.90;;;;;;5055105;28;20065;-81
2021/10/16 09:48:37;;;;;;;74.07;22.33;;;10.40;99.90;;;;;;5055079;28;20063;-79
2021/10/16 09:51:03;;;;;;;56.72;20.75;;;10.40;99.90;;;;;;5054994;28;20041;-81
2021/10/16 09:53:29;;;;;;;43.85;19.25;;;10.40;99.90;;;;;;5055211;28;20032;-81
2021/10/16 09:55:55;;;;;;;42.50;19.50;;;10.60;99.90;;;;;;5054844;28;20024;-83
2021/10/16 09:58:25;;;;;;;38.65;19.80;;;10.70;99.90;;;;;;5054722;28;20048;-83
2021/10/16 10:00:53;;;;;;;41.90;19.70;;;10.80;99.90;;;;;;5054932;28;20031;-83
2021/10/16 10:03:26;;;;;;;29.30;15.85;;;10.80;99.90;;;;;;5054750;28;20492;-83
2021/10/16 10:05:54;;;;;;;32.80;17.30;;;10.80;99.90;;;;;;5054714;28;20021;-83
2021/10/16 10:08:20;;;;;;;35.00;17.85;;;10.80;99.90;;;;;;5054791;28;20082;-83
2021/10/16 10:10:49;;;;;;;34.55;18.33;;;11.00;99.90;;;;;;5057731;28;20028;-83
2021/10/16 10:13:16;;;;;;;34.20;16.20;;;11.20;99.90;;;;;;5059231;28;20024;-83
2021/10/16 10:15:42;;;;;;;28.08;16.10;;;11.40;99.90;;;;;;5058625;28;20109;-83
2021/10/16 10:20:56;;;;;;;30.27;15.27;;;11.30;99.90;;;;;;5076985;28;20055;-83
2021/10/16 10:23:23;;;;;;;34.15;15.38;;;11.40;99.90;;;;;;5058433;28;20033;-83
2021/10/16 10:25:49;;;;;;;31.15;16.27;;;11.40;99.90;;;;;;5058645;28;20024;-83
2021/10/16 10:28:17;;;;;;;28.95;15.43;;;11.40;99.90;;;;;;5058419;28;20028;-82
2021/10/16 10:30:46;;;;;;;33.08;17.58;;;11.50;99.90;;;;;;5076527;28;20138;-83
2021/10/16 10:33:20;;;;;;;31.77;17.52;;;11.50;99.90;;;;;;5058401;28;20047;-84
2021/10/16 10:35:58;;;;;;;31.83;17.90;;;11.60;99.90;;;;;;5058403;28;20500;-83
2021/10/16 10:38:34;;;;;;;36.25;19.13;;;11.70;99.90;;;;;;5058372;28;20020;-84
2021/10/16 10:41:26;;;;;;;35.60;19.38;;;11.80;99.90;;;;;;5058294;28;20039;-83
2021/10/16 10:43:53;;;;;;;34.88;18.80;;;11.80;99.90;;;;;;5054642;28;20029;-83
2021/10/16 10:46:28;;;;;;;41.58;20.48;;;11.90;99.90;;;;;;5076029;28;20557;-84
2021/10/16 10:49:05;;;;;;;38.40;21.10;;;11.80;99.90;;;;;;5058071;28;20020;-84
2021/10/16 10:51:37;;;;;;;33.97;20.48;;;11.90;99.90;;;;;;5057962;28;20032;-84
2021/10/16 10:54:15;;;;;;;34.35;18.15;;;12.10;99.90;;;;;;5075910;28;20158;-83
2021/10/16 10:56:44;;;;;;;31.17;17.50;;;12.10;99.90;;;;;;5057649;28;20045;-83
2021/10/16 10:59:20;;;;;;;35.35;20.67;;;12.30;99.90;;;;;;5057864;28;20399;-84
2021/10/16 11:02:03;;;;;;;39.00;19.98;;;12.30;99.90;;;;;;5058978;28;20024;-84
2021/10/16 11:04:52;;;;;;;34.70;18.30;;;12.30;99.90;;;;;;5057770;28;20124;-82
2021/10/16 11:07:46;;;;;;;34.97;17.70;;;12.30;99.90;;;;;;5057811;28;20020;-83
2021/10/16 11:10:13;;;;;;;43.47;21.97;;;12.40;99.90;;;;;;5057723;28;20027;-83
2021/10/16 11:12:40;;;;;;;36.35;20.10;;;12.40;99.90;;;;;;5057603;28;20111;-83
2021/10/16 11:15:08;;;;;;;33.95;16.60;;;12.40;99.90;;;;;;5075562;28;20020;-84
2021/10/16 11:17:35;;;;;;;32.85;18.73;;;12.50;99.90;;;;;;5057553;28;20025;-83
2021/10/16 11:20:01;;;;;;;37.25;21.00;;;12.30;99.90;;;;;;5057525;28;20483;-84
2021/10/16 11:22:48;;;;;;;34.67;18.17;;;12.30;99.90;;;;;;5056086;28;20035;-84
2021/10/16 11:25:17;;;;;;;35.95;19.63;;;12.50;99.90;;;;;;5057370;28;20029;-84
2021/10/16 11:27:57;;;;;;;32.00;18.58;;;12.40;99.90;;;;;;5057341;28;20455;-83
2021/10/16 11:30:22;;;;;;;30.67;17.25;;;12.30;99.90;;;;;;5058270;28;20360;-84
2021/10/16 11:32:48;;;;;;;32.30;17.83;;;12.30;99.90;;;;;;5075430;28;20021;-83
2021/10/16 11:35:14;;;;;;;29.13;17.23;;;12.30;99.90;;;;;;5057151;28;20049;-83
2021/10/16 11:37:48;;;;;;;22.73;13.75;;;12.40;99.90;;;;;;5075083;28;20035;-83
2021/10/16 11:40:23;;;;;;;35.30;19.52;;;12.60;99.90;;;;;;5075376;28;20056;-84
2021/10/16 11:42:50;;;;;;;34.35;17.80;;;12.60;99.90;;;;;;5057026;28;20040;-83
2021/10/16 11:45:22;;;;;;;26.33;16.80;;;12.60;99.90;;;;;;5074847;28;20032;-83
2021/10/16 11:47:50;;;;;;;28.67;18.15;;;12.70;99.90;;;;;;5056968;28;20021;-83
2021/10/16 11:50:22;;;;;;;21.13;14.07;;;12.50;99.90;;;;;;5056871;28;20388;-84
2021/10/16 11:52:50;;;;;;;31.05;18.42;;;12.70;99.90;;;;;;5075094;28;20031;-84
2021/10/16 11:55:25;;;;;;;30.67;18.63;;;12.80;99.90;;;;;;5056759;28;20024;-84
2021/10/16 11:57:51;;;;;;;31.23;19.35;;;12.80;99.90;;;;;;5053078;28;20041;-84
2021/10/16 12:00:21;;;;;;;26.33;17.60;;;12.70;99.90;;;;;;5054564;28;20024;-83
2021/10/16 12:02:48;;;;;;;21.10;13.55;;;12.70;99.90;;;;;;5053259;28;20029;-84
2021/10/16 12:05:16;;;;;;;23.58;16.00;;;12.70;99.90;;;;;;5053359;28;20035;-84
2021/10/16 12:07:49;;;;;;;21.98;13.80;;;12.60;99.90;;;;;;5053207;28;20369;-83
2021/10/16 12:10:27;;;;;;;21.10;14.15;;;12.60;99.90;;;;;;5054744;28;20424;-84
2021/10/16 12:12:57;;;;;;;23.83;14.45;;;12.60;99.90;;;;;;5054490;28;20025;-83
2021/10/16 12:15:34;;;;;;;22.83;15.95;;;12.70;99.90;;;;;;5053071;28;20399;-82
2021/10/16 12:18:01;;;;;;;20.98;13.45;;;13.30;99.90;;;;;;5053023;28;20032;-82
2021/10/16 12:20:27;;;;;;;22.17;15.43;;;13.30;99.90;;;;;;5052937;28;20039;-82
2021/10/16 12:22:59;;;;;;;20.98;13.25;;;13.30;99.90;;;;;;5052836;28;20025;-82
2021/10/16 12:25:25;;;;;;;21.25;13.57;;;13.30;99.90;;;;;;5052827;28;20024;-83
2021/10/16 12:28:04;;;;;;;21.65;14.25;;;13.30;99.90;;;;;;5053099;28;20176;-82
2021/10/16 12:30:30;;;;;;;22.67;14.02;;;13.40;99.90;;;;;;5052675;28;20036;-82
2021/10/16 12:33:10;;;;;;;19.63;13.07;;;13.60;99.90;;;;;;5051974;28;20025;-82
2021/10/16 12:35:36;;;;;;;22.13;14.52;;;14.70;99.90;;;;;;5054261;28;20104;-82
2021/10/16 12:38:02;;;;;;;20.05;12.68;;;15.00;99.90;;;;;;5052724;28;20099;-82
2021/10/16 12:40:39;;;;;;;20.90;12.10;;;14.80;99.90;;;;;;5052629;28;20122;-82
2021/10/16 12:43:06;;;;;;;19.48;13.70;;;15.00;99.90;;;;;;5052558;28;20024;-83